sensor_id;sensor_type;location;lat;lon;timestamp;pressure;altitude;pressure_sealevel;temperature
15626;BMP180;7912;51.376;6.126;2023-03-21T00:00:59;101394.00;;;14.80
15626;BMP180;7912;51.376;6.126;2023-03-21T00:03:29;101367.00;;;14.80
15626;BMP180;7912;51.376;6.126;2023-03-21T00:05:58;101370.00;;;14.80
15626;BMP180;7912;51.376;6.126;2023-03-21T00:08:25;101380.00;;;14.80
15626;BMP180;7912;51.376;6.126;2023-03-21T00:11:06;101365.00;;;14.80
15626;BMP180;7912;51.376;6.126;2023-03-21T00:13:34;101368.00;;;14.80
15626;BMP180;7912;51.376;6.126;2023-03-21T00:16:06;101371.00;;;14.70
15626;BMP180;7912;51.376;6.126;2023-03-21T00:18:48;101376.00;;;14.70
15626;BMP180;7912;51.376;6.126;2023-03-21T00:21:21;101360.00;;;14.60
15626;BMP180;7912;51.376;6.126;2023-03-21T00:24:14;101360.00;;;14.60
15626;BMP180;7912;51.376;6.126;2023-03-21T00:26:43;101346.00;;;14.60
15626;BMP180;7912;51.376;6.126;2023-03-21T00:29:11;101359.00;;;14.60
15626;BMP180;7912;51.376;6.126;2023-03-21T00:31:38;101358.00;;;14.60
15626;BMP180;7912;51.376;6.126;2023-03-21T00:34:06;101356.00;;;14.60
15626;BMP180;7912;51.376;6.126;2023-03-21T00:36:34;101358.00;;;14.60
15626;BMP180;7912;51.376;6.126;2023-03-21T00:39:20;101355.00;;;14.70
15626;BMP180;7912;51.376;6.126;2023-03-21T00:41:48;101330.00;;;14.70
15626;BMP180;7912;51.376;6.126;2023-03-21T00:44:16;101345.00;;;14.70
15626;BMP180;7912;51.376;6.126;2023-03-21T00:46:44;101349.00;;;14.70
15626;BMP180;7912;51.376;6.126;2023-03-21T00:49:32;101323.00;;;14.60
15626;BMP180;7912;51.376;6.126;2023-03-21T00:52:00;101329.00;;;14.60
15626;BMP180;7912;51.376;6.126;2023-03-21T00:54:42;101342.00;;;14.50
15626;BMP180;7912;51.376;6.126;2023-03-21T00:57:13;101329.00;;;14.60
15626;BMP180;7912;51.376;6.126;2023-03-21T00:59:40;101336.00;;;14.60
15626;BMP180;7912;51.376;6.126;2023-03-21T01:02:08;101326.00;;;14.50
15626;BMP180;7912;51.376;6.126;2023-03-21T01:04:41;101330.00;;;14.50
15626;BMP180;7912;51.376;6.126;2023-03-21T01:07:09;101327.00;;;14.50
15626;BMP180;7912;51.376;6.126;2023-03-21T01:09:37;101319.00;;;14.50
15626;BMP180;7912;51.376;6.126;2023-03-21T01:12:06;101319.00;;;14.50
15626;BMP180;7912;51.376;6.126;2023-03-21T01:14:33;101318.00;;;14.50
15626;BMP180;7912;51.376;6.126;2023-03-21T01:17:02;101304.00;;;14.50
15626;BMP180;7912;51.376;6.126;2023-03-21T01:19:29;101312.00;;;14.50
15626;BMP180;7912;51.376;6.126;2023-03-21T01:22:16;101306.00;;;14.50
15626;BMP180;7912;51.376;6.126;2023-03-21T01:24:44;101310.00;;;14.50
15626;BMP180;7912;51.376;6.126;2023-03-21T01:27:24;101303.00;;;14.60
15626;BMP180;7912;51.376;6.126;2023-03-21T01:29:52;101295.00;;;14.60
15626;BMP180;7912;51.376;6.126;2023-03-21T01:32:19;101281.00;;;14.60
15626;BMP180;7912;51.376;6.126;2023-03-21T01:34:48;101293.00;;;14.70
15626;BMP180;7912;51.376;6.126;2023-03-21T01:37:15;101291.00;;;14.70
15626;BMP180;7912;51.376;6.126;2023-03-21T01:39:46;101293.00;;;14.70
15626;BMP180;7912;51.376;6.126;2023-03-21T01:42:14;101291.00;;;14.70
15626;BMP180;7912;51.376;6.126;2023-03-21T01:45:05;101285.00;;;14.70
15626;BMP180;7912;51.376;6.126;2023-03-21T01:47:34;101276.00;;;14.70
15626;BMP180;7912;51.376;6.126;2023-03-21T01:50:03;101276.00;;;14.70
15626;BMP180;7912;51.376;6.126;2023-03-21T01:52:35;101281.00;;;14.70
15626;BMP180;7912;51.376;6.126;2023-03-21T01:55:09;101276.00;;;14.70
15626;BMP180;7912;51.376;6.126;2023-03-21T01:57:46;101282.00;;;14.70
15626;BMP180;7912;51.376;6.126;2023-03-21T02:00:32;101279.00;;;14.70
15626;BMP180;7912;51.376;6.126;2023-03-21T02:03:02;101268.00;;;14.70
15626;BMP180;7912;51.376;6.126;2023-03-21T02:06:04;101263.00;;;14.70
15626;BMP180;7912;51.376;6.126;2023-03-21T02:08:33;101270.00;;;14.60
15626;BMP180;7912;51.376;6.126;2023-03-21T02:11:07;101253.00;;;14.60
15626;BMP180;7912;51.376;6.126;2023-03-21T02:13:38;101259.00;;;14.60
15626;BMP180;7912;51.376;6.126;2023-03-21T02:26:15;101252.00;;;14.40
15626;BMP180;7912;51.376;6.126;2023-03-21T02:29:08;101235.00;;;14.40
15626;BMP180;7912;51.376;6.126;2023-03-21T02:32:33;101243.00;;;14.40
15626;BMP180;7912;51.376;6.126;2023-03-21T02:35:43;101244.00;;;14.40
15626;BMP180;7912;51.376;6.126;2023-03-21T02:38:54;101236.00;;;14.40
15626;BMP180;7912;51.376;6.126;2023-03-21T02:41:39;101237.00;;;14.40
15626;BMP180;7912;51.376;6.126;2023-03-21T02:44:27;101228.00;;;14.40
15626;BMP180;7912;51.376;6.126;2023-03-21T02:47:12;101213.00;;;14.40
15626;BMP180;7912;51.376;6.126;2023-03-21T02:49:59;101214.00;;;14.40
15626;BMP180;7912;51.376;6.126;2023-03-21T02:52:33;101212.00;;;14.40
15626;BMP180;7912;51.376;6.126;2023-03-21T02:55:13;101215.00;;;14.40
15626;BMP180;7912;51.376;6.126;2023-03-21T02:57:43;101207.00;;;14.40
15626;BMP180;7912;51.376;6.126;2023-03-21T03:00:18;101210.00;;;14.40
15626;BMP180;7912;51.376;6.126;2023-03-21T03:02:48;101195.00;;;14.40
15626;BMP180;7912;51.376;6.126;2023-03-21T03:05:44;101210.00;;;14.40
15626;BMP180;7912;51.376;6.126;2023-03-21T03:11:37;101204.00;;;14.40
15626;BMP180;7912;51.376;6.126;2023-03-21T03:20:50;101204.00;;;14.30
15626;BMP180;7912;51.376;6.126;2023-03-21T03:23:49;101204.00;;;14.20
15626;BMP180;7912;51.376;6.126;2023-03-21T03:26:37;101201.00;;;14.20
15626;BMP180;7912;51.376;6.126;2023-03-21T03:29:14;101194.00;;;14.20
15626;BMP180;7912;51.376;6.126;2023-03-21T03:32:02;101198.00;;;14.10
15626;BMP180;7912;51.376;6.126;2023-03-21T03:34:37;101201.00;;;14.20
15626;BMP180;7912;51.376;6.126;2023-03-21T03:37:18;101195.00;;;14.10
15626;BMP180;7912;51.376;6.126;2023-03-21T03:42:59;101198.00;;;14.10
15626;BMP180;7912;51.376;6.126;2023-03-21T03:50:35;101190.00;;;14.00
15626;BMP180;7912;51.376;6.126;2023-03-21T03:56:27;101192.00;;;14.00
15626;BMP180;7912;51.376;6.126;2023-03-21T03:59:14;101189.00;;;14.00
15626;BMP180;7912;51.376;6.126;2023-03-21T04:02:15;101188.00;;;14.00
15626;BMP180;7912;51.376;6.126;2023-03-21T04:05:14;101188.00;;;14.00
15626;BMP180;7912;51.376;6.126;2023-03-21T04:08:04;101189.00;;;13.90
15626;BMP180;7912;51.376;6.126;2023-03-21T04:10:54;101188.00;;;13.90
15626;BMP180;7912;51.376;6.126;2023-03-21T04:13:47;101179.00;;;13.90
15626;BMP180;7912;51.376;6.126;2023-03-21T04:16:29;101183.00;;;13.80
15626;BMP180;7912;51.376;6.126;2023-03-21T04:22:10;101176.00;;;13.80
15626;BMP180;7912;51.376;6.126;2023-03-21T04:25:01;101175.00;;;13.70
15626;BMP180;7912;51.376;6.126;2023-03-21T04:27:35;101161.00;;;13.70
15626;BMP180;7912;51.376;6.126;2023-03-21T04:30:04;101163.00;;;13.70
15626;BMP180;7912;51.376;6.126;2023-03-21T04:33:11;101160.00;;;13.70
15626;BMP180;7912;51.376;6.126;2023-03-21T04:35:53;101158.00;;;13.70
15626;BMP180;7912;51.376;6.126;2023-03-21T04:39:01;101176.00;;;13.70
15626;BMP180;7912;51.376;6.126;2023-03-21T04:42:06;101170.00;;;13.60
15626;BMP180;7912;51.376;6.126;2023-03-21T04:45:06;101162.00;;;13.60
15626;BMP180;7912;51.376;6.126;2023-03-21T04:47:56;101171.00;;;13.50
15626;BMP180;7912;51.376;6.126;2023-03-21T04:50:24;101173.00;;;13.60
15626;BMP180;7912;51.376;6.126;2023-03-21T04:53:05;101167.00;;;13.60
15626;BMP180;7912;51.376;6.126;2023-03-21T04:59:43;101156.00;;;13.60
15626;BMP180;7912;51.376;6.126;2023-03-21T05:02:42;101158.00;;;13.60
15626;BMP180;7912;51.376;6.126;2023-03-21T05:05:49;101155.00;;;13.60
15626;BMP180;7912;51.376;6.126;2023-03-21T05:08:40;101154.00;;;13.60
15626;BMP180;7912;51.376;6.126;2023-03-21T05:12:19;101155.00;;;13.60
15626;BMP180;7912;51.376;6.126;2023-03-21T05:15:09;101155.00;;;13.60
15626;BMP180;7912;51.376;6.126;2023-03-21T05:18:03;101156.00;;;13.60
15626;BMP180;7912;51.376;6.126;2023-03-21T05:21:16;101138.00;;;13.60
15626;BMP180;7912;51.376;6.126;2023-03-21T05:23:58;101145.00;;;13.70
15626;BMP180;7912;51.376;6.126;2023-03-21T05:27:06;101143.00;;;13.70
15626;BMP180;7912;51.376;6.126;2023-03-21T05:30:48;101137.00;;;13.70
15626;BMP180;7912;51.376;6.126;2023-03-21T05:33:45;101150.00;;;13.70
15626;BMP180;7912;51.376;6.126;2023-03-21T05:36:52;101148.00;;;13.80
15626;BMP180;7912;51.376;6.126;2023-03-21T05:40:29;101150.00;;;13.80
15626;BMP180;7912;51.376;6.126;2023-03-21T05:43:09;101141.00;;;13.80
15626;BMP180;7912;51.376;6.126;2023-03-21T05:45:45;101147.00;;;13.80
15626;BMP180;7912;51.376;6.126;2023-03-21T05:53:03;101131.00;;;13.80
15626;BMP180;7912;51.376;6.126;2023-03-21T05:56:09;101132.00;;;13.90
15626;BMP180;7912;51.376;6.126;2023-03-21T05:58:36;101139.00;;;13.90
15626;BMP180;7912;51.376;6.126;2023-03-21T06:01:47;101132.00;;;13.90
15626;BMP180;7912;51.376;6.126;2023-03-21T06:04:47;101119.00;;;13.90
15626;BMP180;7912;51.376;6.126;2023-03-21T06:07:14;101115.00;;;13.90
15626;BMP180;7912;51.376;6.126;2023-03-21T06:10:19;101124.00;;;13.90
15626;BMP180;7912;51.376;6.126;2023-03-21T06:16:49;101119.00;;;13.90
15626;BMP180;7912;51.376;6.126;2023-03-21T06:19:41;101110.00;;;14.00
15626;BMP180;7912;51.376;6.126;2023-03-21T06:22:08;101138.00;;;14.10
15626;BMP180;7912;51.376;6.126;2023-03-21T06:24:48;101127.00;;;14.10
15626;BMP180;7912;51.376;6.126;2023-03-21T06:27:25;101123.00;;;14.10
15626;BMP180;7912;51.376;6.126;2023-03-21T06:30:40;101142.00;;;14.20
15626;BMP180;7912;51.376;6.126;2023-03-21T06:37:52;101134.00;;;14.20
15626;BMP180;7912;51.376;6.126;2023-03-21T06:41:00;101127.00;;;14.20
15626;BMP180;7912;51.376;6.126;2023-03-21T06:44:31;101117.00;;;14.20
15626;BMP180;7912;51.376;6.126;2023-03-21T06:47:22;101120.00;;;14.30
15626;BMP180;7912;51.376;6.126;2023-03-21T06:50:12;101107.00;;;14.30
15626;BMP180;7912;51.376;6.126;2023-03-21T06:53:51;101109.00;;;14.30
15626;BMP180;7912;51.376;6.126;2023-03-21T06:56:54;101108.00;;;14.30
15626;BMP180;7912;51.376;6.126;2023-03-21T07:00:06;101114.00;;;14.40
15626;BMP180;7912;51.376;6.126;2023-03-21T07:07:16;101107.00;;;14.50
15626;BMP180;7912;51.376;6.126;2023-03-21T07:18:15;101118.00;;;14.60
15626;BMP180;7912;51.376;6.126;2023-03-21T07:21:16;101108.00;;;14.70
15626;BMP180;7912;51.376;6.126;2023-03-21T07:27:32;101116.00;;;14.70
15626;BMP180;7912;51.376;6.126;2023-03-21T07:31:11;101125.00;;;14.80
15626;BMP180;7912;51.376;6.126;2023-03-21T07:39:16;101129.00;;;14.70
15626;BMP180;7912;51.376;6.126;2023-03-21T07:46:20;101136.00;;;14.70
15626;BMP180;7912;51.376;6.126;2023-03-21T07:49:11;101132.00;;;14.70
15626;BMP180;7912;51.376;6.126;2023-03-21T07:55:10;101126.00;;;14.70
15626;BMP180;7912;51.376;6.126;2023-03-21T07:57:37;101138.00;;;14.70
15626;BMP180;7912;51.376;6.126;2023-03-21T08:00:27;101140.00;;;14.80
15626;BMP180;7912;51.376;6.126;2023-03-21T08:03:43;101141.00;;;14.80
15626;BMP180;7912;51.376;6.126;2023-03-21T08:06:43;101148.00;;;14.90
15626;BMP180;7912;51.376;6.126;2023-03-21T08:09:19;101145.00;;;14.90
15626;BMP180;7912;51.376;6.126;2023-03-21T08:12:00;101140.00;;;14.90
15626;BMP180;7912;51.376;6.126;2023-03-21T08:14:37;101142.00;;;14.90
15626;BMP180;7912;51.376;6.126;2023-03-21T08:18:16;101152.00;;;14.90
15626;BMP180;7912;51.376;6.126;2023-03-21T08:23:48;101140.00;;;14.90
15626;BMP180;7912;51.376;6.126;2023-03-21T08:26:22;101138.00;;;14.90
15626;BMP180;7912;51.376;6.126;2023-03-21T08:28:57;101137.00;;;14.90
15626;BMP180;7912;51.376;6.126;2023-03-21T08:31:56;101128.00;;;15.00
15626;BMP180;7912;51.376;6.126;2023-03-21T08:34:32;101141.00;;;15.00
15626;BMP180;7912;51.376;6.126;2023-03-21T08:37:13;101148.00;;;15.10
15626;BMP180;7912;51.376;6.126;2023-03-21T08:39:41;101128.00;;;15.10
15626;BMP180;7912;51.376;6.126;2023-03-21T08:42:22;101138.00;;;15.10
15626;BMP180;7912;51.376;6.126;2023-03-21T08:45:13;101132.00;;;15.10
15626;BMP180;7912;51.376;6.126;2023-03-21T08:47:42;101128.00;;;15.20
15626;BMP180;7912;51.376;6.126;2023-03-21T08:50:39;101131.00;;;15.30
15626;BMP180;7912;51.376;6.126;2023-03-21T08:57:01;101112.00;;;15.50
15626;BMP180;7912;51.376;6.126;2023-03-21T08:59:48;101124.00;;;15.60
15626;BMP180;7912;51.376;6.126;2023-03-21T09:02:16;101118.00;;;15.70
15626;BMP180;7912;51.376;6.126;2023-03-21T09:05:13;101110.00;;;15.80
15626;BMP180;7912;51.376;6.126;2023-03-21T09:12:17;101125.00;;;15.80
15626;BMP180;7912;51.376;6.126;2023-03-21T09:14:44;101121.00;;;15.90
15626;BMP180;7912;51.376;6.126;2023-03-21T09:18:10;101112.00;;;15.90
15626;BMP180;7912;51.376;6.126;2023-03-21T09:21:49;101093.00;;;16.00
15626;BMP180;7912;51.376;6.126;2023-03-21T09:24:41;101093.00;;;16.00
15626;BMP180;7912;51.376;6.126;2023-03-21T09:28:10;101087.00;;;16.00
15626;BMP180;7912;51.376;6.126;2023-03-21T09:31:49;101089.00;;;16.00
15626;BMP180;7912;51.376;6.126;2023-03-21T09:34:27;101081.00;;;15.90
15626;BMP180;7912;51.376;6.126;2023-03-21T09:37:16;101089.00;;;15.90
15626;BMP180;7912;51.376;6.126;2023-03-21T09:40:28;101090.00;;;15.80
15626;BMP180;7912;51.376;6.126;2023-03-21T09:50:40;101075.00;;;15.60
15626;BMP180;7912;51.376;6.126;2023-03-21T09:54:36;101075.00;;;15.60
15626;BMP180;7912;51.376;6.126;2023-03-21T09:57:54;101068.00;;;15.70
15626;BMP180;7912;51.376;6.126;2023-03-21T10:01:08;101073.00;;;15.80
15626;BMP180;7912;51.376;6.126;2023-03-21T10:04:40;101067.00;;;15.80
15626;BMP180;7912;51.376;6.126;2023-03-21T10:07:41;101049.00;;;15.90
15626;BMP180;7912;51.376;6.126;2023-03-21T10:14:49;101056.00;;;16.10
15626;BMP180;7912;51.376;6.126;2023-03-21T10:18:40;101052.00;;;16.30
15626;BMP180;7912;51.376;6.126;2023-03-21T10:21:38;101031.00;;;16.50
15626;BMP180;7912;51.376;6.126;2023-03-21T10:24:59;101036.00;;;16.60
15626;BMP180;7912;51.376;6.126;2023-03-21T10:27:55;101034.00;;;16.80
15626;BMP180;7912;51.376;6.126;2023-03-21T10:31:04;101013.00;;;16.90
15626;BMP180;7912;51.376;6.126;2023-03-21T10:37:10;101020.00;;;17.00
15626;BMP180;7912;51.376;6.126;2023-03-21T10:39:51;101010.00;;;17.00
15626;BMP180;7912;51.376;6.126;2023-03-21T10:42:42;101002.00;;;17.10
15626;BMP180;7912;51.376;6.126;2023-03-21T10:45:47;101000.00;;;17.20
15626;BMP180;7912;51.376;6.126;2023-03-21T10:48:20;101015.00;;;17.20
15626;BMP180;7912;51.376;6.126;2023-03-21T10:51:08;101001.00;;;17.30
15626;BMP180;7912;51.376;6.126;2023-03-21T10:53:53;101018.00;;;17.40
15626;BMP180;7912;51.376;6.126;2023-03-21T10:57:07;101014.00;;;17.60
15626;BMP180;7912;51.376;6.126;2023-03-21T11:00:27;100996.00;;;17.70
15626;BMP180;7912;51.376;6.126;2023-03-21T11:03:35;100984.00;;;17.80
15626;BMP180;7912;51.376;6.126;2023-03-21T11:09:44;101005.00;;;17.80
15626;BMP180;7912;51.376;6.126;2023-03-21T11:12:54;100994.00;;;17.80
15626;BMP180;7912;51.376;6.126;2023-03-21T11:15:52;100998.00;;;17.90
15626;BMP180;7912;51.376;6.126;2023-03-21T11:18:49;100990.00;;;18.00
15626;BMP180;7912;51.376;6.126;2023-03-21T11:21:50;100988.00;;;18.10
15626;BMP180;7912;51.376;6.126;2023-03-21T11:24:38;100985.00;;;18.20
15626;BMP180;7912;51.376;6.126;2023-03-21T11:27:53;100996.00;;;18.20
15626;BMP180;7912;51.376;6.126;2023-03-21T11:30:35;100969.00;;;18.20
15626;BMP180;7912;51.376;6.126;2023-03-21T11:37:40;100982.00;;;18.40
15626;BMP180;7912;51.376;6.126;2023-03-21T11:40:38;100993.00;;;18.50
15626;BMP180;7912;51.376;6.126;2023-03-21T11:43:50;100989.00;;;18.60
15626;BMP180;7912;51.376;6.126;2023-03-21T11:46:44;100968.00;;;18.60
15626;BMP180;7912;51.376;6.126;2023-03-21T11:49:28;100982.00;;;18.60
15626;BMP180;7912;51.376;6.126;2023-03-21T11:53:02;100973.00;;;18.60
15626;BMP180;7912;51.376;6.126;2023-03-21T12:05:30;100973.00;;;19.20
15626;BMP180;7912;51.376;6.126;2023-03-21T12:08:47;100974.00;;;19.40
15626;BMP180;7912;51.376;6.126;2023-03-21T12:20:40;100949.00;;;19.90
15626;BMP180;7912;51.376;6.126;2023-03-21T12:24:18;100955.00;;;20.00
15626;BMP180;7912;51.376;6.126;2023-03-21T12:39:30;100925.00;;;20.20
15626;BMP180;7912;51.376;6.126;2023-03-21T12:44:46;100902.00;;;20.50
15626;BMP180;7912;51.376;6.126;2023-03-21T12:47:52;100892.00;;;20.60
15626;BMP180;7912;51.376;6.126;2023-03-21T12:50:34;100891.00;;;20.70
15626;BMP180;7912;51.376;6.126;2023-03-21T13:00:55;100891.00;;;20.80
15626;BMP180;7912;51.376;6.126;2023-03-21T13:07:40;100879.00;;;20.80
15626;BMP180;7912;51.376;6.126;2023-03-21T13:10:21;100857.00;;;20.90
15626;BMP180;7912;51.376;6.126;2023-03-21T13:16:36;100865.00;;;21.00
15626;BMP180;7912;51.376;6.126;2023-03-21T13:19:46;100873.00;;;21.20
15626;BMP180;7912;51.376;6.126;2023-03-21T13:22:29;100861.00;;;21.50
15626;BMP180;7912;51.376;6.126;2023-03-21T13:25:27;100866.00;;;21.60
15626;BMP180;7912;51.376;6.126;2023-03-21T13:28:05;100864.00;;;21.70
15626;BMP180;7912;51.376;6.126;2023-03-21T13:31:13;100872.00;;;21.70
15626;BMP180;7912;51.376;6.126;2023-03-21T13:33:59;100875.00;;;21.70
15626;BMP180;7912;51.376;6.126;2023-03-21T13:36:34;100873.00;;;21.60
15626;BMP180;7912;51.376;6.126;2023-03-21T13:39:27;100863.00;;;21.50
15626;BMP180;7912;51.376;6.126;2023-03-21T13:42:31;100872.00;;;21.60
15626;BMP180;7912;51.376;6.126;2023-03-21T13:45:50;100870.00;;;21.80
15626;BMP180;7912;51.376;6.126;2023-03-21T13:48:43;100864.00;;;21.80
15626;BMP180;7912;51.376;6.126;2023-03-21T13:52:20;100869.00;;;21.70
15626;BMP180;7912;51.376;6.126;2023-03-21T13:54:55;100870.00;;;21.40
15626;BMP180;7912;51.376;6.126;2023-03-21T14:00:28;100845.00;;;21.20
15626;BMP180;7912;51.376;6.126;2023-03-21T14:03:17;100852.00;;;21.20
15626;BMP180;7912;51.376;6.126;2023-03-21T14:05:52;100848.00;;;21.30
15626;BMP180;7912;51.376;6.126;2023-03-21T14:08:28;100844.00;;;21.50
15626;BMP180;7912;51.376;6.126;2023-03-21T14:11:16;100857.00;;;21.70
15626;BMP180;7912;51.376;6.126;2023-03-21T14:13:46;100839.00;;;22.20
15626;BMP180;7912;51.376;6.126;2023-03-21T14:16:23;100830.00;;;22.70
15626;BMP180;7912;51.376;6.126;2023-03-21T14:19:02;100815.00;;;23.10
15626;BMP180;7912;51.376;6.126;2023-03-21T14:21:45;100818.00;;;23.60
15626;BMP180;7912;51.376;6.126;2023-03-21T14:24:20;100817.00;;;23.90
15626;BMP180;7912;51.376;6.126;2023-03-21T14:26:54;100812.00;;;24.10
15626;BMP180;7912;51.376;6.126;2023-03-21T14:29:49;100815.00;;;24.10
15626;BMP180;7912;51.376;6.126;2023-03-21T14:32:30;100813.00;;;24.00
15626;BMP180;7912;51.376;6.126;2023-03-21T14:35:13;100810.00;;;23.70
15626;BMP180;7912;51.376;6.126;2023-03-21T14:38:16;100817.00;;;23.40
15626;BMP180;7912;51.376;6.126;2023-03-21T14:40:53;100797.00;;;23.20
15626;BMP180;7912;51.376;6.126;2023-03-21T14:43:39;100801.00;;;22.80
15626;BMP180;7912;51.376;6.126;2023-03-21T14:46:20;100813.00;;;22.60
15626;BMP180;7912;51.376;6.126;2023-03-21T14:52:59;100803.00;;;21.90
15626;BMP180;7912;51.376;6.126;2023-03-21T14:55:41;100797.00;;;21.70
15626;BMP180;7912;51.376;6.126;2023-03-21T14:58:19;100801.00;;;21.60
15626;BMP180;7912;51.376;6.126;2023-03-21T15:01:32;100801.00;;;21.60
15626;BMP180;7912;51.376;6.126;2023-03-21T15:04:15;100787.00;;;21.50
15626;BMP180;7912;51.376;6.126;2023-03-21T15:06:59;100783.00;;;21.50
15626;BMP180;7912;51.376;6.126;2023-03-21T15:13:21;100797.00;;;21.30
15626;BMP180;7912;51.376;6.126;2023-03-21T15:16:18;100782.00;;;21.10
15626;BMP180;7912;51.376;6.126;2023-03-21T15:18:58;100800.00;;;21.00
15626;BMP180;7912;51.376;6.126;2023-03-21T15:22:14;100795.00;;;20.90
15626;BMP180;7912;51.376;6.126;2023-03-21T15:25:21;100800.00;;;20.70
15626;BMP180;7912;51.376;6.126;2023-03-21T15:28:41;100790.00;;;20.60
15626;BMP180;7912;51.376;6.126;2023-03-21T15:31:49;100797.00;;;20.40
15626;BMP180;7912;51.376;6.126;2023-03-21T15:34:30;100795.00;;;20.30
15626;BMP180;7912;51.376;6.126;2023-03-21T15:37:25;100798.00;;;20.20
15626;BMP180;7912;51.376;6.126;2023-03-21T15:40:22;100797.00;;;20.10
15626;BMP180;7912;51.376;6.126;2023-03-21T15:43:11;100799.00;;;20.10
15626;BMP180;7912;51.376;6.126;2023-03-21T15:45:56;100805.00;;;20.00
15626;BMP180;7912;51.376;6.126;2023-03-21T15:48:45;100791.00;;;19.90
15626;BMP180;7912;51.376;6.126;2023-03-21T15:51:32;100802.00;;;19.90
15626;BMP180;7912;51.376;6.126;2023-03-21T15:54:21;100800.00;;;19.90
15626;BMP180;7912;51.376;6.126;2023-03-21T15:57:31;100795.00;;;19.90
15626;BMP180;7912;51.376;6.126;2023-03-21T16:00:50;100799.00;;;19.80
15626;BMP180;7912;51.376;6.126;2023-03-21T16:03:32;100785.00;;;19.80
15626;BMP180;7912;51.376;6.126;2023-03-21T16:06:36;100788.00;;;19.70
15626;BMP180;7912;51.376;6.126;2023-03-21T16:09:18;100781.00;;;19.70
15626;BMP180;7912;51.376;6.126;2023-03-21T16:11:59;100787.00;;;19.70
15626;BMP180;7912;51.376;6.126;2023-03-21T16:14:32;100795.00;;;19.70
15626;BMP180;7912;51.376;6.126;2023-03-21T16:17:33;100795.00;;;19.60
15626;BMP180;7912;51.376;6.126;2023-03-21T16:20:49;100807.00;;;19.40
15626;BMP180;7912;51.376;6.126;2023-03-21T16:23:29;100802.00;;;19.40
15626;BMP180;7912;51.376;6.126;2023-03-21T16:25:57;100797.00;;;19.40
15626;BMP180;7912;51.376;6.126;2023-03-21T16:28:31;100794.00;;;19.30
15626;BMP180;7912;51.376;6.126;2023-03-21T16:30:58;100792.00;;;19.30
15626;BMP180;7912;51.376;6.126;2023-03-21T16:33:34;100801.00;;;19.30
15626;BMP180;7912;51.376;6.126;2023-03-21T16:36:38;100797.00;;;19.20
15626;BMP180;7912;51.376;6.126;2023-03-21T16:39:54;100800.00;;;19.20
15626;BMP180;7912;51.376;6.126;2023-03-21T16:42:49;100810.00;;;19.10
15626;BMP180;7912;51.376;6.126;2023-03-21T16:45:28;100813.00;;;19.10
15626;BMP180;7912;51.376;6.126;2023-03-21T16:48:17;100809.00;;;19.00
15626;BMP180;7912;51.376;6.126;2023-03-21T16:50:50;100816.00;;;19.00
15626;BMP180;7912;51.376;6.126;2023-03-21T16:53:17;100815.00;;;18.90
15626;BMP180;7912;51.376;6.126;2023-03-21T16:55:49;100806.00;;;18.90
15626;BMP180;7912;51.376;6.126;2023-03-21T16:58:22;100801.00;;;18.80
15626;BMP180;7912;51.376;6.126;2023-03-21T17:01:01;100815.00;;;18.80
15626;BMP180;7912;51.376;6.126;2023-03-21T17:03:40;100816.00;;;18.70
15626;BMP180;7912;51.376;6.126;2023-03-21T17:06:36;100812.00;;;18.60
15626;BMP180;7912;51.376;6.126;2023-03-21T17:09:23;100813.00;;;18.50
15626;BMP180;7912;51.376;6.126;2023-03-21T17:12:24;100828.00;;;18.50
15626;BMP180;7912;51.376;6.126;2023-03-21T17:15:12;100809.00;;;18.40
15626;BMP180;7912;51.376;6.126;2023-03-21T17:17:42;100818.00;;;18.40
15626;BMP180;7912;51.376;6.126;2023-03-21T17:20:24;100811.00;;;18.40
15626;BMP180;7912;51.376;6.126;2023-03-21T17:23:10;100821.00;;;18.40
15626;BMP180;7912;51.376;6.126;2023-03-21T17:25:44;100816.00;;;18.30
15626;BMP180;7912;51.376;6.126;2023-03-21T17:28:18;100815.00;;;18.30
15626;BMP180;7912;51.376;6.126;2023-03-21T17:30:46;100814.00;;;18.30
15626;BMP180;7912;51.376;6.126;2023-03-21T17:33:22;100831.00;;;18.20
15626;BMP180;7912;51.376;6.126;2023-03-21T17:35:51;100824.00;;;18.10
15626;BMP180;7912;51.376;6.126;2023-03-21T17:38:27;100826.00;;;18.10
15626;BMP180;7912;51.376;6.126;2023-03-21T17:41:04;100828.00;;;18.10
15626;BMP180;7912;51.376;6.126;2023-03-21T17:47:42;100830.00;;;17.90
15626;BMP180;7912;51.376;6.126;2023-03-21T17:50:24;100837.00;;;17.90
15626;BMP180;7912;51.376;6.126;2023-03-21T17:53:02;100845.00;;;17.90
15626;BMP180;7912;51.376;6.126;2023-03-21T17:55:35;100839.00;;;17.90
15626;BMP180;7912;51.376;6.126;2023-03-21T17:58:42;100836.00;;;17.80
15626;BMP180;7912;51.376;6.126;2023-03-21T18:01:20;100846.00;;;17.70
15626;BMP180;7912;51.376;6.126;2023-03-21T18:04:13;100848.00;;;17.60
15626;BMP180;7912;51.376;6.126;2023-03-21T18:07:15;100837.00;;;17.50
15626;BMP180;7912;51.376;6.126;2023-03-21T18:10:25;100845.00;;;17.40
15626;BMP180;7912;51.376;6.126;2023-03-21T18:13:26;100857.00;;;17.30
15626;BMP180;7912;51.376;6.126;2023-03-21T18:15:56;100852.00;;;17.30
15626;BMP180;7912;51.376;6.126;2023-03-21T18:18:45;100833.00;;;17.30
15626;BMP180;7912;51.376;6.126;2023-03-21T18:21:25;100844.00;;;17.20
15626;BMP180;7912;51.376;6.126;2023-03-21T18:24:25;100844.00;;;17.20
15626;BMP180;7912;51.376;6.126;2023-03-21T18:26:53;100861.00;;;17.20
15626;BMP180;7912;51.376;6.126;2023-03-21T18:29:47;100861.00;;;17.20
15626;BMP180;7912;51.376;6.126;2023-03-21T18:33:08;100835.00;;;17.20
15626;BMP180;7912;51.376;6.126;2023-03-21T18:36:24;100846.00;;;17.20
15626;BMP180;7912;51.376;6.126;2023-03-21T18:39:04;100859.00;;;17.20
15626;BMP180;7912;51.376;6.126;2023-03-21T18:44:56;100851.00;;;17.20
15626;BMP180;7912;51.376;6.126;2023-03-21T18:47:39;100854.00;;;17.20
15626;BMP180;7912;51.376;6.126;2023-03-21T18:50:16;100853.00;;;17.20
15626;BMP180;7912;51.376;6.126;2023-03-21T18:52:56;100836.00;;;17.20
15626;BMP180;7912;51.376;6.126;2023-03-21T18:55:31;100845.00;;;17.10
15626;BMP180;7912;51.376;6.126;2023-03-21T18:58:20;100832.00;;;17.10
15626;BMP180;7912;51.376;6.126;2023-03-21T19:00:50;100834.00;;;17.10
15626;BMP180;7912;51.376;6.126;2023-03-21T19:04:06;100820.00;;;17.00
15626;BMP180;7912;51.376;6.126;2023-03-21T19:07:07;100818.00;;;16.90
15626;BMP180;7912;51.376;6.126;2023-03-21T19:09:40;100813.00;;;16.90
15626;BMP180;7912;51.376;6.126;2023-03-21T19:12:43;100809.00;;;16.80